Time;durP1;ratioP1;P1;durP2;ratioP2;P2;SDS_P1;SDS_P2;PMS_P1;PMS_P2;Temp;Humidity;BMP_temperature;BMP_pressure;BME280_temperature;BME280_humidity;BME280_pressure;Samples;Min_cycle;Max_cycle;Signal;HPM_P1;HPM_P2
2023/11/29 00:02:40;;;;;;;;;;;;;;;-0.69;100.00;97570.82;67553;1283;1016203;-69
2023/11/29 00:05:43;;;;;;;;;;;;;;;-0.65;100.00;97578.91;67526;1282;1016389;-69
2023/11/29 00:08:46;;;;;;;;;;;;;;;-0.69;100.00;97584.90;67578;1283;1016106;-69
2023/11/29 00:11:48;;;;;;;;;;;;;;;-0.67;100.00;97582.96;67549;1282;1016486;-69
2023/11/29 00:14:51;;;;;;;;;;;;;;;-0.64;100.00;97579.40;67512;1283;1016149;-69
2023/11/29 00:17:53;;;;;;;;;;;;;;;-0.66;100.00;97584.44;67510;1282;1016478;-70
2023/11/29 00:20:56;;;;;;;;;;;;;;;-0.73;100.00;97599.45;67565;1283;1016214;-69
2023/11/29 00:23:59;;;;;;;;;;;;;;;-0.77;100.00;97602.35;67557;1283;1016723;-69
2023/11/29 00:27:04;;;;;;;;;;;;;;;-0.81;100.00;97597.52;67584;1283;1018507;-69
2023/11/29 00:30:06;;;;;;;;;;;;;;;-0.84;100.00;97596.89;67568;1283;1016496;-69
2023/11/29 00:33:09;;;;;;;;;;;;;;;-0.86;100.00;97596.31;67552;1283;1016986;-69
2023/11/29 00:36:14;;;;;;;;;;;;;;;-0.86;100.00;97593.39;67542;1283;1016446;-68
2023/11/29 00:39:16;;;;;;;;;;;;;;;-0.89;100.00;97595.02;67588;1283;1018104;-69
2023/11/29 00:42:19;;;;;;;;;;;;;;;-0.92;100.00;97598.55;67583;1283;1016341;-69
2023/11/29 00:45:22;;;;;;;;;;;;;;;-0.94;100.00;97598.48;67564;1283;1016510;-69
2023/11/29 00:48:24;;;;;;;;;;;;;;;-0.93;100.00;97603.05;67560;1283;1016407;-69
2023/11/29 00:51:27;;;;;;;;;;;;;;;-1.02;100.00;97617.63;67569;1283;1016275;-69
2023/11/29 00:54:30;;;;;;;;;;;;;;;-1.09;100.00;97625.71;67518;1283;1015980;-70
2023/11/29 00:57:32;;;;;;;;;;;;;;;-1.09;100.00;97626.41;67576;1283;1018317;-70
2023/11/29 01:00:35;;;;;;;;;;;;;;;-1.12;100.00;97628.39;67540;1283;1016378;-69
2023/11/29 01:03:37;;;;;;;;;;;;;;;-1.07;100.00;97636.45;67530;1283;1016264;-70
2023/11/29 01:06:41;;;;;;;;;;;;;;;-1.00;100.00;97638.48;67548;1282;1016679;-69
2023/11/29 01:09:44;;;;;;;;;;;;;;;-0.93;100.00;97637.89;67544;1283;1016221;-69
2023/11/29 01:12:47;;;;;;;;;;;;;;;-0.96;100.00;97638.17;67562;1283;1020166;-69
2023/11/29 01:15:49;;;;;;;;;;;;;;;-0.99;100.00;97644.46;67529;1283;1016453;-69
2023/11/29 01:18:52;;;;;;;;;;;;;;;-1.04;100.00;97644.11;67550;1283;1018046;-69
2023/11/29 01:21:54;;;;;;;;;;;;;;;-1.05;100.00;97646.02;67556;1283;1016607;-69
2023/11/29 01:24:57;;;;;;;;;;;;;;;-1.07;100.00;97651.91;67570;1283;1018040;-69
2023/11/29 01:28:00;;;;;;;;;;;;;;;-1.14;100.00;97655.25;67547;1283;1016321;-70
2023/11/29 01:31:03;;;;;;;;;;;;;;;-1.19;100.00;97653.67;67576;1283;1016438;-69
2023/11/29 01:34:06;;;;;;;;;;;;;;;-1.17;100.00;97656.02;67534;1283;1016140;-69
2023/11/29 01:37:08;;;;;;;;;;;;;;;-1.13;100.00;97655.70;67539;1283;1016294;-69
2023/11/29 01:40:11;;;;;;;;;;;;;;;-1.18;100.00;97655.52;67574;1283;1016264;-69
2023/11/29 01:43:13;;;;;;;;;;;;;;;-1.35;100.00;97660.36;67582;1283;1016227;-69
2023/11/29 01:46:16;;;;;;;;;;;;;;;-1.32;100.00;97662.49;67540;1283;1015874;-69
2023/11/29 01:49:19;;;;;;;;;;;;;;;-1.30;100.00;97668.60;67562;1283;1016485;-69
2023/11/29 01:52:22;;;;;;;;;;;;;;;-1.47;100.00;97668.79;67555;1283;1016494;-69
2023/11/29 01:55:25;;;;;;;;;;;;;;;-1.52;100.00;97668.41;67572;1283;1016439;-69
2023/11/29 01:58:28;;;;;;;;;;;;;;;-1.47;100.00;97670.52;67587;1283;1016474;-69
2023/11/29 02:01:31;;;;;;;;;;;;;;;-1.45;100.00;97670.95;67563;1283;1016444;-69
2023/11/29 02:04:33;;;;;;;;;;;;;;;-1.49;100.00;97672.80;67575;1283;1016431;-69
2023/11/29 02:07:36;;;;;;;;;;;;;;;-1.58;100.00;97677.88;67537;1283;1016501;-69
2023/11/29 02:10:39;;;;;;;;;;;;;;;-1.62;100.00;97682.10;67568;1283;1016283;-69
2023/11/29 02:13:41;;;;;;;;;;;;;;;-1.68;100.00;97675.77;67551;1283;1016658;-68
2023/11/29 02:16:44;;;;;;;;;;;;;;;-1.60;100.00;97676.38;67584;1283;1016099;-69
2023/11/29 02:19:46;;;;;;;;;;;;;;;-1.63;100.00;97676.48;67416;1285;1016453;-69
2023/11/29 02:22:49;;;;;;;;;;;;;;;-1.68;100.00;97673.38;67407;1285;1016446;-69
2023/11/29 02:25:52;;;;;;;;;;;;;;;-1.66;100.00;97681.55;67443;1285;1016491;-69
2023/11/29 02:28:54;;;;;;;;;;;;;;;-1.66;100.00;97683.59;67435;1284;1016493;-69
2023/11/29 02:31:57;;;;;;;;;;;;;;;-1.70;100.00;97688.52;67402;1285;1016515;-69
2023/11/29 02:34:59;;;;;;;;;;;;;;;-1.69;100.00;97696.05;67416;1285;1016888;-69
2023/11/29 02:38:02;;;;;;;;;;;;;;;-1.69;100.00;97689.17;67467;1285;1016112;-69
2023/11/29 02:41:05;;;;;;;;;;;;;;;-1.60;100.00;97694.23;67482;1285;1016506;-69
2023/11/29 02:44:07;;;;;;;;;;;;;;;-1.71;100.00;97696.77;67448;1285;1016054;-69
2023/11/29 02:47:10;;;;;;;;;;;;;;;-1.78;100.00;97700.56;67467;1285;1016439;-69
2023/11/29 02:50:12;;;;;;;;;;;;;;;-1.70;100.00;97700.35;67463;1285;1016363;-69
2023/11/29 02:53:15;;;;;;;;;;;;;;;-1.72;100.00;97700.56;67458;1285;1016459;-69
2023/11/29 02:56:19;;;;;;;;;;;;;;;-1.78;100.00;97704.17;67468;1285;1019524;-69
2023/11/29 02:59:23;;;;;;;;;;;;;;;-1.76;100.00;97700.18;67422;1285;1017424;-69
2023/11/29 03:02:25;;;;;;;;;;;;;;;-1.67;100.00;97701.80;67446;1285;1016297;-69
2023/11/29 03:05:28;;;;;;;;;;;;;;;-1.71;100.00;97706.70;67435;1285;1016139;-69
2023/11/29 03:08:30;;;;;;;;;;;;;;;-1.77;100.00;97705.17;67459;1285;1016515;-69
2023/11/29 03:11:33;;;;;;;;;;;;;;;-1.73;100.00;97703.54;67458;1285;1015905;-68
2023/11/29 03:14:35;;;;;;;;;;;;;;;-1.77;100.00;97707.38;67463;1285;1016208;-69
2023/11/29 03:17:38;;;;;;;;;;;;;;;-1.79;100.00;97700.26;67455;1283;1016450;-69
2023/11/29 03:20:40;;;;;;;;;;;;;;;-1.81;100.00;97693.80;65031;1282;6369618;-69
2023/11/29 03:23:43;;;;;;;;;;;;;;;-1.70;100.00;97698.97;67571;1282;1018039;-69
2023/11/29 03:26:46;;;;;;;;;;;;;;;-1.67;100.00;97704.02;67551;1283;1018901;-70
2023/11/29 03:29:49;;;;;;;;;;;;;;;-1.61;100.00;97711.73;67548;1283;1016388;-69
2023/11/29 03:32:51;;;;;;;;;;;;;;;-1.55;100.00;97711.05;67576;1283;1018803;-69
2023/11/29 03:35:54;;;;;;;;;;;;;;;-1.51;100.00;97712.81;67556;1282;1016256;-68
2023/11/29 03:38:57;;;;;;;;;;;;;;;-1.57;100.00;97707.15;67538;1283;1015928;-69
2023/11/29 03:41:59;;;;;;;;;;;;;;;-1.57;100.00;97702.88;67566;1283;1016537;-69
2023/11/29 03:45:02;;;;;;;;;;;;;;;-1.60;100.00;97709.81;67590;1283;1016503;-69
2023/11/29 03:48:05;;;;;;;;;;;;;;;-1.61;100.00;97718.92;67543;1283;1016137;-69
2023/11/29 03:51:08;;;;;;;;;;;;;;;-1.62;100.00;97719.81;67597;1283;1016357;-69
2023/11/29 03:54:10;;;;;;;;;;;;;;;-1.46;100.00;97725.89;67579;1283;1016531;-69
2023/11/29 03:57:13;;;;;;;;;;;;;;;-1.43;100.00;97733.84;67542;1283;1016979;-69
2023/11/29 04:00:15;;;;;;;;;;;;;;;-1.45;100.00;97737.66;67539;1283;1016223;-69
2023/11/29 04:03:18;;;;;;;;;;;;;;;-1.40;100.00;97737.86;67564;1283;1018486;-69
2023/11/29 04:06:20;;;;;;;;;;;;;;;-1.35;100.00;97739.24;67600;1283;1016372;-69
2023/11/29 04:09:23;;;;;;;;;;;;;;;-1.32;100.00;97739.70;67536;1283;1016321;-69
2023/11/29 04:12:26;;;;;;;;;;;;;;;-1.37;100.00;97742.75;67503;1283;1016507;-68
2023/11/29 04:15:28;;;;;;;;;;;;;;;-1.35;100.00;97744.91;67588;1283;1017782;-69
2023/11/29 04:18:32;;;;;;;;;;;;;;;-1.36;100.00;97745.79;67568;1283;1017177;-69
2023/11/29 04:21:35;;;;;;;;;;;;;;;-1.43;100.00;97752.53;67555;1283;1016462;-69
2023/11/29 04:24:37;;;;;;;;;;;;;;;-1.30;100.00;97756.09;67583;1283;1016134;-69
2023/11/29 04:27:40;;;;;;;;;;;;;;;-1.31;100.00;97767.95;67544;1283;1016147;-69
2023/11/29 04:30:43;;;;;;;;;;;;;;;-1.25;100.00;97767.09;67567;1283;1018466;-69
2023/11/29 04:33:45;;;;;;;;;;;;;;;-1.20;100.00;97776.05;67560;1283;1015922;-69
2023/11/29 04:36:48;;;;;;;;;;;;;;;-1.21;100.00;97777.58;67555;1283;1016380;-69
2023/11/29 04:39:50;;;;;;;;;;;;;;;-1.23;100.00;97779.88;67509;1283;1016373;-69
2023/11/29 04:42:53;;;;;;;;;;;;;;;-1.33;100.00;97778.83;67551;1283;1016469;-69
2023/11/29 04:45:55;;;;;;;;;;;;;;;-1.30;100.00;97781.13;67542;1283;1016361;-69
2023/11/29 04:48:58;;;;;;;;;;;;;;;-1.27;100.00;97780.17;67551;1283;1016151;-69
2023/11/29 04:52:01;;;;;;;;;;;;;;;-1.27;100.00;97785.51;67519;1283;1016491;-68
2023/11/29 04:55:04;;;;;;;;;;;;;;;-1.24;100.00;97784.20;67560;1283;1016513;-69
2023/11/29 04:58:07;;;;;;;;;;;;;;;-1.24;100.00;97782.67;67528;1283;1016355;-68
2023/11/29 05:01:10;;;;;;;;;;;;;;;-1.30;100.00;97785.93;67578;1283;1016487;-69
2023/11/29 05:04:13;;;;;;;;;;;;;;;-1.40;100.00;97798.58;67524;1283;1016530;-69
2023/11/29 05:07:15;;;;;;;;;;;;;;;-1.43;100.00;97807.58;67513;1283;1016540;-69
2023/11/29 05:10:18;;;;;;;;;;;;;;;-1.34;100.00;97808.70;67581;1283;1016454;-68
2023/11/29 05:13:20;;;;;;;;;;;;;;;-1.25;100.00;97813.73;67549;1283;1016359;-69
2023/11/29 05:16:23;;;;;;;;;;;;;;;-1.15;100.00;97812.95;67517;1283;1016299;-69
2023/11/29 05:19:26;;;;;;;;;;;;;;;-1.25;100.00;97821.45;67595;1283;1016442;-69
2023/11/29 05:22:28;;;;;;;;;;;;;;;-1.23;100.00;97822.77;67547;1283;1016456;-69
2023/11/29 05:25:31;;;;;;;;;;;;;;;-1.16;100.00;97821.04;67478;1283;1016114;-69
2023/11/29 05:28:35;;;;;;;;;;;;;;;-1.07;100.00;97824.36;67544;1283;1016427;-69
2023/11/29 05:31:37;;;;;;;;;;;;;;;-1.00;100.00;97828.80;67529;1283;1016937;-68
2023/11/29 05:34:41;;;;;;;;;;;;;;;-0.98;100.00;97832.84;67576;1282;1016438;-68
2023/11/29 05:37:44;;;;;;;;;;;;;;;-0.97;100.00;97836.59;67509;1283;1018728;-69
2023/11/29 05:40:46;;;;;;;;;;;;;;;-0.98;100.00;97835.60;67544;1283;1016560;-69
2023/11/29 05:43:49;;;;;;;;;;;;;;;-1.00;100.00;97837.02;67574;1283;1016188;-69
2023/11/29 05:46:51;;;;;;;;;;;;;;;-1.00;100.00;97840.98;67535;1283;1016420;-69
2023/11/29 05:49:54;;;;;;;;;;;;;;;-0.89;100.00;97842.70;67536;1283;1016932;-68
2023/11/29 05:52:58;;;;;;;;;;;;;;;-0.91;100.00;97850.14;67532;1283;1016421;-69
2023/11/29 05:56:01;;;;;;;;;;;;;;;-0.91;100.00;97848.77;67556;1283;1016504;-69
2023/11/29 05:59:04;;;;;;;;;;;;;;;-0.83;100.00;97851.13;67506;1283;1016308;-68
2023/11/29 06:02:08;;;;;;;;;;;;;;;-0.84;100.00;97853.04;67545;1283;1016449;-68
2023/11/29 06:05:10;;;;;;;;;;;;;;;-0.77;100.00;97855.91;67532;1283;1016433;-69
2023/11/29 06:08:13;;;;;;;;;;;;;;;-0.76;100.00;97862.06;67545;1283;1016396;-69
2023/11/29 06:11:16;;;;;;;;;;;;;;;-0.78;100.00;97865.90;67521;1283;1016428;-68
2023/11/29 06:14:18;;;;;;;;;;;;;;;-0.86;100.00;97868.88;67571;1283;1016113;-69
2023/11/29 06:17:21;;;;;;;;;;;;;;;-0.77;100.00;97869.11;67523;1283;1016402;-69
2023/11/29 06:20:24;;;;;;;;;;;;;;;-0.77;100.00;97866.90;67505;1283;1016502;-68
2023/11/29 06:23:27;;;;;;;;;;;;;;;-0.80;100.00;97871.95;67537;1283;1016488;-69
2023/11/29 06:26:32;;;;;;;;;;;;;;;-0.80;100.00;97875.21;67533;1283;1016216;-69
2023/11/29 06:29:35;;;;;;;;;;;;;;;-0.78;100.00;97877.05;67532;1283;1016657;-69
2023/11/29 06:32:37;;;;;;;;;;;;;;;-0.77;100.00;97879.93;67525;1283;1016448;-69
2023/11/29 06:35:40;;;;;;;;;;;;;;;-0.70;100.00;97883.31;67495;1283;1016224;-68
2023/11/29 06:38:43;;;;;;;;;;;;;;;-0.57;100.00;97888.77;67532;1283;1016343;-69
2023/11/29 06:41:47;;;;;;;;;;;;;;;-0.53;100.00;97895.02;67545;1283;1016506;-69
2023/11/29 06:44:52;;;;;;;;;;;;;;;-0.48;100.00;97894.16;67542;1283;1016429;-68
2023/11/29 06:47:54;;;;;;;;;;;;;;;-0.39;100.00;97895.93;67519;1283;1016431;-69
2023/11/29 06:51:00;;;;;;;;;;;;;;;-0.40;100.00;97893.21;67508;1283;1016346;-69
2023/11/29 06:54:03;;;;;;;;;;;;;;;-0.43;100.00;97895.38;67540;1283;1016402;-69
2023/11/29 06:57:05;;;;;;;;;;;;;;;-0.58;100.00;97898.08;67525;1283;1018465;-70
2023/11/29 07:00:10;;;;;;;;;;;;;;;-0.74;100.00;97906.63;67508;1283;1016555;-68
2023/11/29 07:03:13;;;;;;;;;;;;;;;-0.71;100.00;97907.05;67552;1283;1016218;-69
2023/11/29 07:06:17;;;;;;;;;;;;;;;-0.65;100.00;97913.07;67568;1283;1016318;-69
2023/11/29 07:09:20;;;;;;;;;;;;;;;-0.64;100.00;97919.90;67524;1283;1016441;-69
2023/11/29 07:12:23;;;;;;;;;;;;;;;-0.62;100.00;97923.80;67510;1283;1015787;-69
2023/11/29 07:15:25;;;;;;;;;;;;;;;-0.56;100.00;97918.30;67539;1283;1016663;-69
2023/11/29 07:18:28;;;;;;;;;;;;;;;-0.49;100.00;97921.16;67509;1283;1016480;-68
2023/11/29 07:21:30;;;;;;;;;;;;;;;-0.46;100.00;97921.58;67524;1283;1016485;-68
2023/11/29 07:24:33;;;;;;;;;;;;;;;-0.38;100.00;97922.55;67545;1283;1016923;-68
2023/11/29 07:27:37;;;;;;;;;;;;;;;-0.47;100.00;97925.06;67523;1283;1019425;-68
2023/11/29 07:30:39;;;;;;;;;;;;;;;-0.50;100.00;97926.35;67525;1282;1016626;-68
2023/11/29 07:33:42;;;;;;;;;;;;;;;-0.38;100.00;97924.77;67498;1283;1017829;-69
2023/11/29 07:36:49;;;;;;;;;;;;;;;-0.30;100.00;97929.32;67548;1283;1016081;-68
2023/11/29 07:39:52;;;;;;;;;;;;;;;-0.11;100.00;97930.80;67545;1283;1016151;-69
2023/11/29 07:42:54;;;;;;;;;;;;;;;-0.12;100.00;97931.70;67534;1283;1016421;-68
2023/11/29 07:45:57;;;;;;;;;;;;;;;-0.25;100.00;97930.23;67528;1282;1016471;-69
2023/11/29 07:48:59;;;;;;;;;;;;;;;-0.25;100.00;97927.64;67534;1283;1016376;-67
2023/11/29 07:52:03;;;;;;;;;;;;;;;-0.16;100.00;97926.15;67501;1283;1016419;-69
2023/11/29 07:55:06;;;;;;;;;;;;;;;-0.03;100.00;97926.24;67545;1282;1017081;-69
2023/11/29 07:58:08;;;;;;;;;;;;;;;0.03;100.00;97923.64;67510;1283;1016842;-69
2023/11/29 08:01:11;;;;;;;;;;;;;;;0.05;100.00;97922.03;67538;1282;1016244;-69
2023/11/29 08:04:13;;;;;;;;;;;;;;;0.09;100.00;97927.41;67565;1282;1016111;-69
2023/11/29 08:07:16;;;;;;;;;;;;;;;0.01;100.00;97934.55;67506;1282;1016387;-69
2023/11/29 08:10:19;;;;;;;;;;;;;;;0.09;100.00;97931.00;67479;1283;1016378;-67
2023/11/29 08:13:21;;;;;;;;;;;;;;;0.07;100.00;97935.38;67537;1283;1016324;-69
2023/11/29 08:16:24;;;;;;;;;;;;;;;0.18;100.00;97940.19;67525;1282;1016431;-69
2023/11/29 08:19:26;;;;;;;;;;;;;;;0.19;100.00;97936.36;67509;1283;1016556;-69
2023/11/29 08:22:29;;;;;;;;;;;;;;;0.12;100.00;97940.04;67511;1282;1016380;-68
2023/11/29 08:25:32;;;;;;;;;;;;;;;0.01;100.00;97944.49;67518;1283;1016468;-69
2023/11/29 08:28:34;;;;;;;;;;;;;;;-0.03;100.00;97944.83;67526;1283;1016767;-69
2023/11/29 08:31:37;;;;;;;;;;;;;;;-0.09;100.00;97949.27;67519;1283;1016543;-69
2023/11/29 08:34:40;;;;;;;;;;;;;;;-0.02;100.00;97952.34;67502;1282;1016037;-69
2023/11/29 08:37:43;;;;;;;;;;;;;;;0.10;100.00;97955.73;67551;1283;1016574;-69
2023/11/29 08:40:45;;;;;;;;;;;;;;;0.20;100.00;97955.09;67487;1283;1016368;-69
2023/11/29 08:43:48;;;;;;;;;;;;;;;0.17;100.00;97957.23;67499;1283;1016173;-69
2023/11/29 08:46:51;;;;;;;;;;;;;;;0.08;100.00;97954.94;67544;1283;1016450;-69
2023/11/29 08:49:53;;;;;;;;;;;;;;;-0.04;100.00;97950.86;67477;1283;1016397;-69
2023/11/29 08:52:56;;;;;;;;;;;;;;;-0.04;100.00;97948.11;67490;1282;1016406;-69
2023/11/29 08:55:58;;;;;;;;;;;;;;;0.03;100.00;97947.02;67515;1282;1016257;-69
2023/11/29 08:59:04;;;;;;;;;;;;;;;-0.13;100.00;97952.69;67510;1283;1016512;-70
2023/11/29 09:02:06;;;;;;;;;;;;;;;-0.12;100.00;97955.59;67501;1283;1016350;-69
2023/11/29 09:05:09;;;;;;;;;;;;;;;0.02;100.00;97958.74;67483;1282;1016465;-69
2023/11/29 09:08:11;;;;;;;;;;;;;;;0.11;100.00;97960.52;67510;1283;1016503;-68
2023/11/29 09:11:14;;;;;;;;;;;;;;;0.23;100.00;97961.66;67498;1283;1016359;-69
2023/11/29 09:14:17;;;;;;;;;;;;;;;0.34;100.00;97961.84;67505;1283;1016511;-69
2023/11/29 09:17:20;;;;;;;;;;;;;;;0.38;100.00;97959.84;67503;1283;1016514;-69
2023/11/29 09:20:22;;;;;;;;;;;;;;;0.16;100.00;97969.45;67501;1283;1016436;-69
2023/11/29 09:23:25;;;;;;;;;;;;;;;0.07;100.00;97972.88;67513;1283;1016641;-69
2023/11/29 09:26:28;;;;;;;;;;;;;;;-0.02;100.00;97974.52;67501;1282;1015816;-69
2023/11/29 09:29:32;;;;;;;;;;;;;;;-0.06;100.00;97976.00;67534;1283;1016493;-68
2023/11/29 09:32:35;;;;;;;;;;;;;;;-0.22;100.00;97986.64;67493;1283;1016169;-69
2023/11/29 09:35:37;;;;;;;;;;;;;;;-0.24;100.00;97981.53;67507;1283;1016587;-69
2023/11/29 09:38:40;;;;;;;;;;;;;;;-0.31;100.00;97982.81;67483;1283;1016647;-69
2023/11/29 09:41:43;;;;;;;;;;;;;;;-0.38;100.00;97986.94;67513;1283;1018196;-69
2023/11/29 09:44:45;;;;;;;;;;;;;;;-0.31;100.00;97987.96;67522;1282;1016049;-69
2023/11/29 09:47:48;;;;;;;;;;;;;;;-0.28;100.00;97987.52;67497;1283;1018602;-69
2023/11/29 09:50:50;;;;;;;;;;;;;;;-0.32;100.00;97985.06;67468;1283;1016462;-68
2023/11/29 09:53:53;;;;;;;;;;;;;;;-0.33;100.00;97984.56;67504;1283;1016565;-70
2023/11/29 09:56:56;;;;;;;;;;;;;;;-0.25;100.00;97983.64;67511;1282;1016369;-69
2023/11/29 09:59:58;;;;;;;;;;;;;;;-0.29;100.00;97988.23;67486;1283;1016308;-69
2023/11/29 10:03:01;;;;;;;;;;;;;;;-0.28;100.00;97988.39;67499;1283;1016095;-69
2023/11/29 10:06:04;;;;;;;;;;;;;;;-0.30;100.00;97983.29;67498;1283;1015890;-68
2023/11/29 10:09:11;;;;;;;;;;;;;;;-0.33;100.00;97979.43;67496;1283;1016478;-69
2023/11/29 10:12:14;;;;;;;;;;;;;;;-0.36;100.00;97977.10;67495;1283;1016490;-69
2023/11/29 10:15:16;;;;;;;;;;;;;;;-0.21;100.00;97979.41;67513;1283;1016079;-68
2023/11/29 10:18:19;;;;;;;;;;;;;;;-0.12;100.00;97983.44;67475;1283;1016365;-69
2023/11/29 10:21:21;;;;;;;;;;;;;;;-0.33;100.00;97994.35;67471;1282;1016558;-69
2023/11/29 10:24:24;;;;;;;;;;;;;;;-0.48;100.00;98000.14;67506;1283;1016468;-69
2023/11/29 10:27:27;;;;;;;;;;;;;;;-0.51;100.00;98000.05;67482;1283;1016258;-69
2023/11/29 10:30:29;;;;;;;;;;;;;;;-0.54;100.00;98004.77;67469;1282;1016311;-68
2023/11/29 10:33:32;;;;;;;;;;;;;;;-0.51;100.00;97995.09;67495;1283;1016338;-69
2023/11/29 10:36:35;;;;;;;;;;;;;;;-0.38;100.00;97992.63;67495;1282;1017524;-69
2023/11/29 10:39:40;;;;;;;;;;;;;;;-0.25;100.00;97994.64;67479;1283;1016356;-69
2023/11/29 10:42:43;;;;;;;;;;;;;;;-0.09;100.00;97994.84;67509;1282;1016434;-69
2023/11/29 10:45:47;;;;;;;;;;;;;;;-0.18;100.00;97993.57;67514;1283;1016867;-69
2023/11/29 10:48:53;;;;;;;;;;;;;;;-0.08;100.00;97994.11;67457;1283;1016263;-68
2023/11/29 10:51:56;;;;;;;;;;;;;;;-0.14;100.00;97991.76;67467;1283;1016372;-68
2023/11/29 10:54:59;;;;;;;;;;;;;;;-0.24;100.00;97991.02;67514;1282;1016424;-69
2023/11/29 10:58:01;;;;;;;;;;;;;;;-0.12;100.00;97981.36;67489;1283;1016185;-69
2023/11/29 11:01:04;;;;;;;;;;;;;;;-0.02;100.00;97983.46;67468;1283;1016337;-69
2023/11/29 11:04:10;;;;;;;;;;;;;;;0.08;100.00;97983.84;67501;1282;1016316;-69
2023/11/29 11:07:13;;;;;;;;;;;;;;;0.06;100.00;97985.80;67513;1283;1016463;-69
2023/11/29 11:10:15;;;;;;;;;;;;;;;0.19;100.00;97980.38;67491;1283;1018530;-69
2023/11/29 11:13:18;;;;;;;;;;;;;;;0.56;100.00;97972.77;67490;1283;1017435;-68
2023/11/29 11:16:23;;;;;;;;;;;;;;;0.86;100.00;97967.46;67491;1283;1016427;-69
2023/11/29 11:19:26;;;;;;;;;;;;;;;1.05;100.00;97966.98;67488;1283;1016431;-69
2023/11/29 11:22:29;;;;;;;;;;;;;;;0.91;100.00;97975.36;67499;1282;1018061;-69
2023/11/29 11:25:31;;;;;;;;;;;;;;;1.01;100.00;97973.83;67484;1282;1016414;-68
2023/11/29 11:28:34;;;;;;;;;;;;;;;1.20;100.00;97976.72;67479;1283;1016429;-68
2023/11/29 11:31:37;;;;;;;;;;;;;;;1.27;100.00;97976.48;67484;1283;1016657;-69
2023/11/29 11:34:40;;;;;;;;;;;;;;;1.34;100.00;97977.60;67482;1283;1017077;-68
2023/11/29 11:37:43;;;;;;;;;;;;;;;1.40;100.00;97977.75;67509;1283;1016655;-68
2023/11/29 11:40:45;;;;;;;;;;;;;;;1.56;100.00;97983.52;67484;1282;1016434;-69
2023/11/29 11:43:48;;;;;;;;;;;;;;;1.50;100.00;97987.70;67468;1283;1015781;-69
2023/11/29 11:46:51;;;;;;;;;;;;;;;1.36;100.00;97985.96;67502;1283;1016076;-69
2023/11/29 11:49:53;;;;;;;;;;;;;;;1.45;100.00;97986.18;67497;1282;1016216;-68
2023/11/29 11:52:59;;;;;;;;;;;;;;;1.58;100.00;97991.73;67475;1283;1018348;-68
2023/11/29 11:56:02;;;;;;;;;;;;;;;1.54;100.00;97995.48;67475;1282;1017378;-69
2023/11/29 11:59:05;;;;;;;;;;;;;;;1.50;100.00;97987.38;67492;1282;1016615;-69
2023/11/29 12:02:07;;;;;;;;;;;;;;;1.53;100.00;97984.98;67484;1283;1016491;-67
2023/11/29 12:05:10;;;;;;;;;;;;;;;1.61;100.00;97988.69;67470;1282;1016543;-69
2023/11/29 12:08:12;;;;;;;;;;;;;;;1.44;100.00;97984.30;67490;1282;1016487;-67
2023/11/29 12:11:15;;;;;;;;;;;;;;;1.62;100.00;97986.06;67524;1283;1015681;-69
2023/11/29 12:14:19;;;;;;;;;;;;;;;1.74;100.00;97989.02;67472;1283;1018027;-69
2023/11/29 12:17:22;;;;;;;;;;;;;;;1.66;100.00;97997.44;67486;1282;1016519;-69
2023/11/29 12:20:24;;;;;;;;;;;;;;;1.44;100.00;97993.77;67513;1283;1016315;-69
2023/11/29 12:23:28;;;;;;;;;;;;;;;1.14;100.00;97992.30;67517;1283;1020377;-69
2023/11/29 12:26:31;;;;;;;;;;;;;;;1.05;100.00;97995.38;67505;1282;1016269;-69
2023/11/29 12:29:33;;;;;;;;;;;;;;;1.02;100.00;97988.39;67527;1282;1016488;-69
2023/11/29 12:32:36;;;;;;;;;;;;;;;0.94;100.00;97989.73;67480;1283;1019143;-69
2023/11/29 12:35:38;;;;;;;;;;;;;;;1.06;100.00;97983.96;67494;1282;1016462;-67
2023/11/29 12:38:42;;;;;;;;;;;;;;;1.15;100.00;97981.41;67518;1283;1016662;-69
2023/11/29 12:41:45;;;;;;;;;;;;;;;1.39;100.00;97979.67;67495;1282;1016490;-69
2023/11/29 12:44:49;;;;;;;;;;;;;;;1.61;100.00;97976.10;67493;1282;1016422;-69
2023/11/29 12:47:52;;;;;;;;;;;;;;;1.64;100.00;97979.94;67533;1283;1016495;-70
2023/11/29 12:50:55;;;;;;;;;;;;;;;1.71;100.00;97974.32;67479;1282;1015723;-69
2023/11/29 12:53:58;;;;;;;;;;;;;;;1.76;100.00;97972.60;67519;1281;1016416;-69
2023/11/29 12:57:01;;;;;;;;;;;;;;;1.88;100.00;97971.27;67485;1283;1016642;-69
2023/11/29 13:00:05;;;;;;;;;;;;;;;1.91;100.00;97971.68;67533;1283;1016550;-68
2023/11/29 13:03:08;;;;;;;;;;;;;;;1.72;100.00;97972.20;67503;1282;1016316;-69
2023/11/29 13:06:11;;;;;;;;;;;;;;;1.66;100.00;97976.25;67451;1282;1016485;-69
2023/11/29 13:09:14;;;;;;;;;;;;;;;1.36;100.00;97970.98;67491;1283;1016500;-68
2023/11/29 13:12:16;;;;;;;;;;;;;;;1.04;100.00;97973.70;67488;1282;1016188;-69
2023/11/29 13:15:19;;;;;;;;;;;;;;;0.84;100.00;97973.02;67470;1283;1016406;-69
2023/11/29 13:18:24;;;;;;;;;;;;;;;0.73;100.00;97966.87;67490;1282;1016316;-69
2023/11/29 13:21:30;;;;;;;;;;;;;;;0.76;100.00;97967.98;67497;1283;1016352;-69
2023/11/29 13:24:33;;;;;;;;;;;;;;;0.71;100.00;97969.88;67511;1283;1016380;-69
2023/11/29 13:27:36;;;;;;;;;;;;;;;0.69;100.00;97968.73;67526;1282;1016510;-70
2023/11/29 13:30:38;;;;;;;;;;;;;;;0.72;100.00;97970.18;67509;1283;1016511;-70
2023/11/29 13:33:41;;;;;;;;;;;;;;;0.76;100.00;97965.90;67480;1282;1016314;-69
2023/11/29 13:36:47;;;;;;;;;;;;;;;0.78;100.00;97959.66;67483;1282;1017130;-69
2023/11/29 13:39:51;;;;;;;;;;;;;;;0.93;100.00;97951.20;67509;1283;1016450;-69
2023/11/29 13:42:54;;;;;;;;;;;;;;;0.94;100.00;97958.39;67464;1283;1018429;-69
2023/11/29 13:45:57;;;;;;;;;;;;;;;1.01;100.00;97961.94;67506;1282;1016465;-69
2023/11/29 13:48:59;;;;;;;;;;;;;;;1.04;100.00;97964.91;67515;1283;1016323;-69
2023/11/29 13:52:02;;;;;;;;;;;;;;;1.26;100.00;97966.04;67488;1282;1016364;-69
2023/11/29 13:55:05;;;;;;;;;;;;;;;1.33;100.00;97968.16;67494;1282;1016524;-69
2023/11/29 13:58:08;;;;;;;;;;;;;;;1.28;100.00;97962.31;67494;1283;1016448;-69
2023/11/29 14:01:10;;;;;;;;;;;;;;;1.26;100.00;97961.39;67488;1283;1016206;-69
2023/11/29 14:04:13;;;;;;;;;;;;;;;0.94;100.00;97963.21;67511;1282;1016407;-69
2023/11/29 14:07:16;;;;;;;;;;;;;;;0.75;100.00;97963.20;67497;1282;1016198;-68
2023/11/29 14:10:19;;;;;;;;;;;;;;;0.57;100.00;97966.22;67452;1282;1016367;-69
2023/11/29 14:13:28;;;;;;;;;;;;;;;0.48;100.00;97966.52;67526;1282;1016430;-69
2023/11/29 14:16:30;;;;;;;;;;;;;;;0.41;100.00;97974.15;67477;1283;1016453;-69
2023/11/29 14:19:33;;;;;;;;;;;;;;;0.38;100.00;97979.76;67513;1283;1016463;-69
2023/11/29 14:22:38;;;;;;;;;;;;;;;0.25;100.00;97981.57;67520;1282;1017852;-69
2023/11/29 14:25:40;;;;;;;;;;;;;;;0.10;100.00;97987.02;67474;1283;1016416;-69
2023/11/29 14:28:43;;;;;;;;;;;;;;;0.03;100.00;97984.66;67543;1283;1016281;-69
2023/11/29 14:31:46;;;;;;;;;;;;;;;-0.10;100.00;97986.63;67525;1283;1016511;-69
2023/11/29 14:34:49;;;;;;;;;;;;;;;-0.25;100.00;97998.42;67526;1282;1016295;-69
2023/11/29 14:37:52;;;;;;;;;;;;;;;-0.38;100.00;97996.58;67492;1283;1018864;-69
2023/11/29 14:40:57;;;;;;;;;;;;;;;-0.59;100.00;97997.20;67525;1283;1016846;-69
2023/11/29 14:44:00;;;;;;;;;;;;;;;-0.70;100.00;97998.69;67514;1282;1016287;-69
2023/11/29 14:47:03;;;;;;;;;;;;;;;-0.61;100.00;97995.38;67477;1282;1016301;-69
2023/11/29 14:50:05;;;;;;;;;;;;;;;-0.79;100.00;97999.32;67535;1282;1016446;-69
2023/11/29 14:53:08;;;;;;;;;;;;;;;-0.94;100.00;97998.35;67522;1282;1016857;-69
2023/11/29 14:59:50;;;;;;;;;;;;;;;-1.33;100.00;98005.92;67517;1282;1016268;-69
2023/11/29 15:02:53;;;;;;;;;;;;;;;-1.55;100.00;98009.04;67516;1282;1016472;-69
2023/11/29 15:05:57;;;;;;;;;;;;;;;-1.75;100.00;98013.81;67528;1283;1016434;-69
2023/11/29 15:08:59;;;;;;;;;;;;;;;-1.90;100.00;98018.11;67516;1283;1016787;-69
2023/11/29 15:12:02;;;;;;;;;;;;;;;-2.05;100.00;98016.41;67511;1282;1016625;-69
2023/11/29 15:15:05;;;;;;;;;;;;;;;-2.16;100.00;98018.04;67509;1283;1016242;-70
2023/11/29 15:18:07;;;;;;;;;;;;;;;-2.28;100.00;98019.32;67505;1283;1016552;-71
2023/11/29 15:21:11;;;;;;;;;;;;;;;-2.33;100.00;98018.08;66208;1282;3647096;-71
2023/11/29 15:24:13;;;;;;;;;;;;;;;-2.33;100.00;98021.16;67502;1283;1016213;-71